sensor_id;sensor_type;location;lat;lon;timestamp;temperature;humidity
63313;DHT22;49442;45.640;13.812;2022-12-24T00:00:00;8.70;99.90
63313;DHT22;49442;45.640;13.812;2022-12-24T00:02:25;8.70;99.90
63313;DHT22;49442;45.640;13.812;2022-12-24T00:04:54;8.70;99.90
63313;DHT22;49442;45.640;13.812;2022-12-24T00:07:19;8.70;99.90
63313;DHT22;49442;45.640;13.812;2022-12-24T00:09:45;8.70;99.90
63313;DHT22;49442;45.640;13.812;2022-12-24T00:12:10;8.70;99.90
63313;DHT22;49442;45.640;13.812;2022-12-24T00:14:36;8.70;99.90
63313;DHT22;49442;45.640;13.812;2022-12-24T00:17:01;8.70;99.90
63313;DHT22;49442;45.640;13.812;2022-12-24T00:19:27;8.70;99.90
63313;DHT22;49442;45.640;13.812;2022-12-24T00:21:52;8.70;99.90
63313;DHT22;49442;45.640;13.812;2022-12-24T00:24:18;8.70;99.90
63313;DHT22;49442;45.640;13.812;2022-12-24T00:26:43;8.70;99.90
63313;DHT22;49442;45.640;13.812;2022-12-24T00:29:10;8.70;99.90
63313;DHT22;49442;45.640;13.812;2022-12-24T00:31:36;8.70;99.90
63313;DHT22;49442;45.640;13.812;2022-12-24T00:34:01;8.70;99.90
63313;DHT22;49442;45.640;13.812;2022-12-24T00:36:27;8.70;99.90
63313;DHT22;49442;45.640;13.812;2022-12-24T00:38:52;8.70;99.90
63313;DHT22;49442;45.640;13.812;2022-12-24T00:41:18;8.70;99.90
63313;DHT22;49442;45.640;13.812;2022-12-24T00:43:53;8.70;99.90
63313;DHT22;49442;45.640;13.812;2022-12-24T00:46:19;8.70;99.90
63313;DHT22;49442;45.640;13.812;2022-12-24T00:48:44;8.70;99.90
63313;DHT22;49442;45.640;13.812;2022-12-24T00:51:10;8.70;99.90
63313;DHT22;49442;45.640;13.812;2022-12-24T00:53:36;8.70;99.90
63313;DHT22;49442;45.640;13.812;2022-12-24T00:56:01;8.70;99.90
63313;DHT22;49442;45.640;13.812;2022-12-24T00:58:27;8.70;99.90
63313;DHT22;49442;45.640;13.812;2022-12-24T01:00:52;8.70;99.90
63313;DHT22;49442;45.640;13.812;2022-12-24T01:03:18;8.70;99.90
63313;DHT22;49442;45.640;13.812;2022-12-24T01:05:43;8.70;99.90
63313;DHT22;49442;45.640;13.812;2022-12-24T01:08:09;8.70;99.90
63313;DHT22;49442;45.640;13.812;2022-12-24T01:10:34;8.70;99.90
63313;DHT22;49442;45.640;13.812;2022-12-24T01:13:00;8.70;99.90
63313;DHT22;49442;45.640;13.812;2022-12-24T01:15:27;8.70;99.90
63313;DHT22;49442;45.640;13.812;2022-12-24T01:17:52;8.70;99.90
63313;DHT22;49442;45.640;13.812;2022-12-24T01:20:18;8.70;99.90
63313;DHT22;49442;45.640;13.812;2022-12-24T01:22:44;8.60;99.90
63313;DHT22;49442;45.640;13.812;2022-12-24T01:25:10;8.70;99.90
63313;DHT22;49442;45.640;13.812;2022-12-24T01:27:36;8.70;99.90
63313;DHT22;49442;45.640;13.812;2022-12-24T01:30:02;8.60;99.90
63313;DHT22;49442;45.640;13.812;2022-12-24T01:32:27;8.70;99.90
63313;DHT22;49442;45.640;13.812;2022-12-24T01:34:53;8.70;99.90
63313;DHT22;49442;45.640;13.812;2022-12-24T01:37:18;8.70;99.90
63313;DHT22;49442;45.640;13.812;2022-12-24T01:39:44;8.70;99.90
63313;DHT22;49442;45.640;13.812;2022-12-24T01:42:20;8.70;99.90
63313;DHT22;49442;45.640;13.812;2022-12-24T01:47:49;8.70;99.90
63313;DHT22;49442;45.640;13.812;2022-12-24T01:50:15;8.70;99.90
63313;DHT22;49442;45.640;13.812;2022-12-24T01:52:42;8.70;99.90
63313;DHT22;49442;45.640;13.812;2022-12-24T01:55:13;8.70;99.90
63313;DHT22;49442;45.640;13.812;2022-12-24T01:57:47;8.70;99.90
63313;DHT22;49442;45.640;13.812;2022-12-24T02:00:14;8.70;99.90
63313;DHT22;49442;45.640;13.812;2022-12-24T02:02:40;8.70;99.90
63313;DHT22;49442;45.640;13.812;2022-12-24T02:05:09;8.70;99.90
63313;DHT22;49442;45.640;13.812;2022-12-24T02:07:38;8.70;99.90
63313;DHT22;49442;45.640;13.812;2022-12-24T02:10:04;8.70;99.90
63313;DHT22;49442;45.640;13.812;2022-12-24T02:12:31;8.70;99.90
63313;DHT22;49442;45.640;13.812;2022-12-24T02:14:59;8.70;99.90
63313;DHT22;49442;45.640;13.812;2022-12-24T02:22:49;8.70;99.90
63313;DHT22;49442;45.640;13.812;2022-12-24T02:30:17;8.70;99.90
63313;DHT22;49442;45.640;13.812;2022-12-24T02:35:28;8.70;99.90
63313;DHT22;49442;45.640;13.812;2022-12-24T02:38:00;8.70;99.90
63313;DHT22;49442;45.640;13.812;2022-12-24T02:40:28;8.70;99.90
63313;DHT22;49442;45.640;13.812;2022-12-24T02:42:57;8.70;99.90
63313;DHT22;49442;45.640;13.812;2022-12-24T02:45:26;8.70;99.90
63313;DHT22;49442;45.640;13.812;2022-12-24T02:47:52;8.70;99.90
63313;DHT22;49442;45.640;13.812;2022-12-24T02:50:19;8.70;99.90
63313;DHT22;49442;45.640;13.812;2022-12-24T02:52:45;8.70;99.90
63313;DHT22;49442;45.640;13.812;2022-12-24T02:55:14;8.70;99.90
63313;DHT22;49442;45.640;13.812;2022-12-24T03:00:11;8.70;99.90
63313;DHT22;49442;45.640;13.812;2022-12-24T03:02:46;8.70;99.90
63313;DHT22;49442;45.640;13.812;2022-12-24T03:05:27;8.70;99.90
63313;DHT22;49442;45.640;13.812;2022-12-24T03:12:58;8.70;99.90
63313;DHT22;49442;45.640;13.812;2022-12-24T03:15:26;8.70;99.90
63313;DHT22;49442;45.640;13.812;2022-12-24T03:17:53;8.70;99.90
63313;DHT22;49442;45.640;13.812;2022-12-24T03:20:21;8.70;99.90
63313;DHT22;49442;45.640;13.812;2022-12-24T03:22:48;8.70;99.90
63313;DHT22;49442;45.640;13.812;2022-12-24T03:25:14;8.70;99.90
63313;DHT22;49442;45.640;13.812;2022-12-24T03:27:40;8.70;99.90
63313;DHT22;49442;45.640;13.812;2022-12-24T03:30:08;8.70;99.90
63313;DHT22;49442;45.640;13.812;2022-12-24T03:32:34;8.80;99.90
63313;DHT22;49442;45.640;13.812;2022-12-24T03:35:00;8.70;99.90
63313;DHT22;49442;45.640;13.812;2022-12-24T03:37:26;8.70;99.90
63313;DHT22;49442;45.640;13.812;2022-12-24T03:39:51;8.70;99.90
63313;DHT22;49442;45.640;13.812;2022-12-24T03:42:17;8.70;99.90
63313;DHT22;49442;45.640;13.812;2022-12-24T03:44:46;8.70;99.90
63313;DHT22;49442;45.640;13.812;2022-12-24T03:47:11;8.70;99.90
63313;DHT22;49442;45.640;13.812;2022-12-24T03:49:37;8.80;99.90
63313;DHT22;49442;45.640;13.812;2022-12-24T03:52:02;8.80;99.90
63313;DHT22;49442;45.640;13.812;2022-12-24T03:54:28;8.80;99.90
63313;DHT22;49442;45.640;13.812;2022-12-24T03:56:53;8.80;99.90
63313;DHT22;49442;45.640;13.812;2022-12-24T03:59:19;8.80;99.90
63313;DHT22;49442;45.640;13.812;2022-12-24T04:01:44;8.80;99.90
63313;DHT22;49442;45.640;13.812;2022-12-24T04:04:10;8.80;99.90
63313;DHT22;49442;45.640;13.812;2022-12-24T04:06:35;8.80;99.90
63313;DHT22;49442;45.640;13.812;2022-12-24T04:09:01;8.80;99.90
63313;DHT22;49442;45.640;13.812;2022-12-24T04:11:29;8.80;99.90
63313;DHT22;49442;45.640;13.812;2022-12-24T04:13:55;8.80;99.90
63313;DHT22;49442;45.640;13.812;2022-12-24T04:16:20;8.80;99.90
63313;DHT22;49442;45.640;13.812;2022-12-24T04:18:46;8.80;99.90
63313;DHT22;49442;45.640;13.812;2022-12-24T04:21:11;8.80;99.90
63313;DHT22;49442;45.640;13.812;2022-12-24T04:23:37;8.80;99.90
63313;DHT22;49442;45.640;13.812;2022-12-24T04:26:04;8.80;99.90
63313;DHT22;49442;45.640;13.812;2022-12-24T04:28:30;8.80;99.90
63313;DHT22;49442;45.640;13.812;2022-12-24T04:30:59;8.80;99.90
63313;DHT22;49442;45.640;13.812;2022-12-24T04:33:25;8.80;99.90
63313;DHT22;49442;45.640;13.812;2022-12-24T04:35:51;8.80;99.90
63313;DHT22;49442;45.640;13.812;2022-12-24T04:38:16;8.80;99.90
63313;DHT22;49442;45.640;13.812;2022-12-24T04:40:42;8.80;99.90
63313;DHT22;49442;45.640;13.812;2022-12-24T04:43:07;8.80;99.90
63313;DHT22;49442;45.640;13.812;2022-12-24T04:45:33;8.80;99.90
63313;DHT22;49442;45.640;13.812;2022-12-24T04:47:58;8.80;99.90
63313;DHT22;49442;45.640;13.812;2022-12-24T04:50:24;8.80;99.90
63313;DHT22;49442;45.640;13.812;2022-12-24T04:52:50;8.80;99.90
63313;DHT22;49442;45.640;13.812;2022-12-24T04:55:15;8.80;99.90
63313;DHT22;49442;45.640;13.812;2022-12-24T04:57:43;8.80;99.90
63313;DHT22;49442;45.640;13.812;2022-12-24T05:00:09;8.80;99.90
63313;DHT22;49442;45.640;13.812;2022-12-24T05:02:36;8.80;99.90
63313;DHT22;49442;45.640;13.812;2022-12-24T05:05:01;8.80;99.90
63313;DHT22;49442;45.640;13.812;2022-12-24T05:07:27;8.80;99.90
63313;DHT22;49442;45.640;13.812;2022-12-24T05:09:52;8.80;99.90
63313;DHT22;49442;45.640;13.812;2022-12-24T05:12:18;8.80;99.90
63313;DHT22;49442;45.640;13.812;2022-12-24T05:14:43;8.80;99.90
63313;DHT22;49442;45.640;13.812;2022-12-24T05:17:09;8.80;99.90
63313;DHT22;49442;45.640;13.812;2022-12-24T05:19:34;8.80;99.90
63313;DHT22;49442;45.640;13.812;2022-12-24T05:22:00;8.80;99.90
63313;DHT22;49442;45.640;13.812;2022-12-24T05:24:44;8.80;99.90
63313;DHT22;49442;45.640;13.812;2022-12-24T05:27:28;8.80;99.90
63313;DHT22;49442;45.640;13.812;2022-12-24T05:29:54;8.80;99.90
63313;DHT22;49442;45.640;13.812;2022-12-24T05:32:20;8.80;99.90
63313;DHT22;49442;45.640;13.812;2022-12-24T05:34:45;8.80;99.90
63313;DHT22;49442;45.640;13.812;2022-12-24T05:37:11;8.80;99.90
63313;DHT22;49442;45.640;13.812;2022-12-24T05:39:36;8.80;99.90
63313;DHT22;49442;45.640;13.812;2022-12-24T05:42:02;8.80;99.90
63313;DHT22;49442;45.640;13.812;2022-12-24T05:44:27;8.80;99.90
63313;DHT22;49442;45.640;13.812;2022-12-24T05:46:53;8.80;99.90
63313;DHT22;49442;45.640;13.812;2022-12-24T05:49:18;8.80;99.90
63313;DHT22;49442;45.640;13.812;2022-12-24T05:51:44;8.80;99.90
63313;DHT22;49442;45.640;13.812;2022-12-24T05:54:09;8.80;99.90
63313;DHT22;49442;45.640;13.812;2022-12-24T05:56:35;8.80;99.90
63313;DHT22;49442;45.640;13.812;2022-12-24T05:59:00;8.80;99.90
63313;DHT22;49442;45.640;13.812;2022-12-24T06:01:26;8.80;99.90
63313;DHT22;49442;45.640;13.812;2022-12-24T06:03:52;8.80;99.90
63313;DHT22;49442;45.640;13.812;2022-12-24T06:06:19;8.80;99.90
63313;DHT22;49442;45.640;13.812;2022-12-24T06:08:45;8.80;99.90
63313;DHT22;49442;45.640;13.812;2022-12-24T06:11:11;8.80;99.90
63313;DHT22;49442;45.640;13.812;2022-12-24T06:13:37;8.80;99.90
63313;DHT22;49442;45.640;13.812;2022-12-24T06:16:04;8.80;99.90
63313;DHT22;49442;45.640;13.812;2022-12-24T06:18:31;8.80;99.90
63313;DHT22;49442;45.640;13.812;2022-12-24T06:20:57;8.80;99.90
63313;DHT22;49442;45.640;13.812;2022-12-24T06:23:22;8.80;99.90
63313;DHT22;49442;45.640;13.812;2022-12-24T06:25:49;8.80;99.90
63313;DHT22;49442;45.640;13.812;2022-12-24T06:28:14;8.80;99.90
63313;DHT22;49442;45.640;13.812;2022-12-24T06:30:40;8.80;99.90
63313;DHT22;49442;45.640;13.812;2022-12-24T06:33:06;8.80;99.90
63313;DHT22;49442;45.640;13.812;2022-12-24T06:35:32;8.80;99.90
63313;DHT22;49442;45.640;13.812;2022-12-24T06:37:57;8.80;99.90
63313;DHT22;49442;45.640;13.812;2022-12-24T06:40:24;8.80;99.90
63313;DHT22;49442;45.640;13.812;2022-12-24T06:42:50;8.80;99.90
63313;DHT22;49442;45.640;13.812;2022-12-24T06:45:15;8.80;99.90
63313;DHT22;49442;45.640;13.812;2022-12-24T06:47:41;8.80;99.90
63313;DHT22;49442;45.640;13.812;2022-12-24T06:50:07;8.80;99.90
63313;DHT22;49442;45.640;13.812;2022-12-24T06:52:32;8.80;99.90
63313;DHT22;49442;45.640;13.812;2022-12-24T06:54:58;8.80;99.90
63313;DHT22;49442;45.640;13.812;2022-12-24T06:57:23;8.80;99.90
63313;DHT22;49442;45.640;13.812;2022-12-24T06:59:49;8.80;99.90
63313;DHT22;49442;45.640;13.812;2022-12-24T07:02:14;8.80;99.90
63313;DHT22;49442;45.640;13.812;2022-12-24T07:04:40;8.80;99.90
63313;DHT22;49442;45.640;13.812;2022-12-24T07:07:05;8.90;99.90
63313;DHT22;49442;45.640;13.812;2022-12-24T07:09:31;8.90;99.90
63313;DHT22;49442;45.640;13.812;2022-12-24T07:11:56;8.90;99.90
63313;DHT22;49442;45.640;13.812;2022-12-24T07:14:22;8.90;99.90
63313;DHT22;49442;45.640;13.812;2022-12-24T07:16:47;8.80;99.90
63313;DHT22;49442;45.640;13.812;2022-12-24T07:19:13;8.90;99.90
63313;DHT22;49442;45.640;13.812;2022-12-24T07:21:39;8.90;99.90
63313;DHT22;49442;45.640;13.812;2022-12-24T07:24:05;8.90;99.90
63313;DHT22;49442;45.640;13.812;2022-12-24T07:26:30;8.90;99.90
63313;DHT22;49442;45.640;13.812;2022-12-24T07:28:56;8.90;99.90
63313;DHT22;49442;45.640;13.812;2022-12-24T07:31:21;8.90;99.90
63313;DHT22;49442;45.640;13.812;2022-12-24T07:33:47;8.90;99.90
63313;DHT22;49442;45.640;13.812;2022-12-24T07:36:14;8.90;99.90
63313;DHT22;49442;45.640;13.812;2022-12-24T07:38:41;8.90;99.90
63313;DHT22;49442;45.640;13.812;2022-12-24T07:41:07;8.90;99.90
63313;DHT22;49442;45.640;13.812;2022-12-24T07:43:33;8.90;99.90
63313;DHT22;49442;45.640;13.812;2022-12-24T07:45:58;8.90;99.90
63313;DHT22;49442;45.640;13.812;2022-12-24T07:48:24;8.90;99.90
63313;DHT22;49442;45.640;13.812;2022-12-24T07:50:50;8.90;99.90
63313;DHT22;49442;45.640;13.812;2022-12-24T07:53:16;8.90;99.90
63313;DHT22;49442;45.640;13.812;2022-12-24T07:55:42;8.90;99.90
63313;DHT22;49442;45.640;13.812;2022-12-24T07:58:08;8.90;99.90
63313;DHT22;49442;45.640;13.812;2022-12-24T08:00:33;8.90;99.90
63313;DHT22;49442;45.640;13.812;2022-12-24T08:02:59;8.90;99.90
63313;DHT22;49442;45.640;13.812;2022-12-24T08:05:25;8.90;99.90
63313;DHT22;49442;45.640;13.812;2022-12-24T08:07:51;8.90;99.90
63313;DHT22;49442;45.640;13.812;2022-12-24T08:10:17;8.90;99.90
63313;DHT22;49442;45.640;13.812;2022-12-24T08:12:42;8.90;99.90
63313;DHT22;49442;45.640;13.812;2022-12-24T08:15:08;8.90;99.90
63313;DHT22;49442;45.640;13.812;2022-12-24T08:17:33;8.90;99.90
63313;DHT22;49442;45.640;13.812;2022-12-24T08:19:59;8.90;99.90
63313;DHT22;49442;45.640;13.812;2022-12-24T08:22:24;8.90;99.90
63313;DHT22;49442;45.640;13.812;2022-12-24T08:24:50;8.90;99.90
63313;DHT22;49442;45.640;13.812;2022-12-24T08:27:16;8.90;99.90
63313;DHT22;49442;45.640;13.812;2022-12-24T08:29:41;9.00;99.90
63313;DHT22;49442;45.640;13.812;2022-12-24T08:32:07;9.00;99.90
63313;DHT22;49442;45.640;13.812;2022-12-24T08:34:32;8.90;99.90
63313;DHT22;49442;45.640;13.812;2022-12-24T08:36:58;8.90;99.90
63313;DHT22;49442;45.640;13.812;2022-12-24T08:39:23;9.00;99.90
63313;DHT22;49442;45.640;13.812;2022-12-24T08:41:49;8.90;99.90
63313;DHT22;49442;45.640;13.812;2022-12-24T08:44:14;8.90;99.90
63313;DHT22;49442;45.640;13.812;2022-12-24T08:46:40;8.90;99.90
63313;DHT22;49442;45.640;13.812;2022-12-24T08:49:05;8.90;99.90
63313;DHT22;49442;45.640;13.812;2022-12-24T08:51:31;9.00;99.90
63313;DHT22;49442;45.640;13.812;2022-12-24T08:53:57;8.90;99.90
63313;DHT22;49442;45.640;13.812;2022-12-24T08:56:22;8.90;99.90
63313;DHT22;49442;45.640;13.812;2022-12-24T08:58:48;9.00;99.90
63313;DHT22;49442;45.640;13.812;2022-12-24T09:01:15;9.00;99.90
63313;DHT22;49442;45.640;13.812;2022-12-24T09:03:41;9.00;99.90
63313;DHT22;49442;45.640;13.812;2022-12-24T09:06:06;9.00;99.90
63313;DHT22;49442;45.640;13.812;2022-12-24T09:08:32;9.00;99.90
63313;DHT22;49442;45.640;13.812;2022-12-24T09:11:02;9.00;99.90
63313;DHT22;49442;45.640;13.812;2022-12-24T09:13:28;9.00;99.90
63313;DHT22;49442;45.640;13.812;2022-12-24T09:15:53;9.00;99.90
63313;DHT22;49442;45.640;13.812;2022-12-24T09:18:19;9.00;99.90
63313;DHT22;49442;45.640;13.812;2022-12-24T09:20:45;9.00;99.90
63313;DHT22;49442;45.640;13.812;2022-12-24T09:23:10;9.00;99.90
63313;DHT22;49442;45.640;13.812;2022-12-24T09:25:39;9.00;99.90
63313;DHT22;49442;45.640;13.812;2022-12-24T09:28:08;9.00;99.90
63313;DHT22;49442;45.640;13.812;2022-12-24T09:30:35;9.00;99.90
63313;DHT22;49442;45.640;13.812;2022-12-24T09:33:00;9.00;99.90
63313;DHT22;49442;45.640;13.812;2022-12-24T09:35:26;9.10;99.90
63313;DHT22;49442;45.640;13.812;2022-12-24T09:37:51;9.10;99.90
63313;DHT22;49442;45.640;13.812;2022-12-24T09:40:37;9.10;99.90
63313;DHT22;49442;45.640;13.812;2022-12-24T09:43:05;9.20;99.90
63313;DHT22;49442;45.640;13.812;2022-12-24T09:45:36;9.10;99.90
63313;DHT22;49442;45.640;13.812;2022-12-24T09:48:05;9.20;99.90
63313;DHT22;49442;45.640;13.812;2022-12-24T09:50:37;9.20;99.90
63313;DHT22;49442;45.640;13.812;2022-12-24T09:53:06;9.20;99.90
63313;DHT22;49442;45.640;13.812;2022-12-24T09:55:42;9.20;99.90
63313;DHT22;49442;45.640;13.812;2022-12-24T09:58:10;9.20;99.90
63313;DHT22;49442;45.640;13.812;2022-12-24T10:00:40;9.20;99.90
63313;DHT22;49442;45.640;13.812;2022-12-24T10:03:15;9.20;99.90
63313;DHT22;49442;45.640;13.812;2022-12-24T10:10:53;9.30;99.90
63313;DHT22;49442;45.640;13.812;2022-12-24T10:25:51;9.30;99.90
63313;DHT22;49442;45.640;13.812;2022-12-24T10:28:22;9.30;99.90
63313;DHT22;49442;45.640;13.812;2022-12-24T10:30:50;9.30;99.90
63313;DHT22;49442;45.640;13.812;2022-12-24T10:33:19;9.30;99.90
63313;DHT22;49442;45.640;13.812;2022-12-24T10:35:50;9.30;99.90
63313;DHT22;49442;45.640;13.812;2022-12-24T10:38:17;9.30;99.90
63313;DHT22;49442;45.640;13.812;2022-12-24T10:40:44;9.30;99.90
63313;DHT22;49442;45.640;13.812;2022-12-24T10:43:15;9.30;99.90
63313;DHT22;49442;45.640;13.812;2022-12-24T10:45:43;9.30;99.90
63313;DHT22;49442;45.640;13.812;2022-12-24T10:48:13;9.40;99.90
63313;DHT22;49442;45.640;13.812;2022-12-24T10:56:22;9.40;99.90
63313;DHT22;49442;45.640;13.812;2022-12-24T10:58:51;9.50;99.90
63313;DHT22;49442;45.640;13.812;2022-12-24T11:01:17;9.50;99.90
63313;DHT22;49442;45.640;13.812;2022-12-24T11:03:43;9.60;99.90
63313;DHT22;49442;45.640;13.812;2022-12-24T11:08:36;9.60;99.90
63313;DHT22;49442;45.640;13.812;2022-12-24T11:11:03;9.60;99.90
63313;DHT22;49442;45.640;13.812;2022-12-24T11:13:30;9.60;99.90
63313;DHT22;49442;45.640;13.812;2022-12-24T11:16:01;9.60;99.90
63313;DHT22;49442;45.640;13.812;2022-12-24T11:18:27;9.60;99.90
63313;DHT22;49442;45.640;13.812;2022-12-24T11:20:53;9.60;99.90
63313;DHT22;49442;45.640;13.812;2022-12-24T11:23:19;9.70;99.90
63313;DHT22;49442;45.640;13.812;2022-12-24T11:25:49;9.80;99.90
63313;DHT22;49442;45.640;13.812;2022-12-24T11:28:22;9.80;99.90
63313;DHT22;49442;45.640;13.812;2022-12-24T11:30:58;9.80;99.90
63313;DHT22;49442;45.640;13.812;2022-12-24T11:33:27;9.80;99.90
63313;DHT22;49442;45.640;13.812;2022-12-24T11:35:55;9.90;99.90
63313;DHT22;49442;45.640;13.812;2022-12-24T11:38:25;9.80;99.90
63313;DHT22;49442;45.640;13.812;2022-12-24T11:41:01;9.90;99.90
63313;DHT22;49442;45.640;13.812;2022-12-24T11:43:33;10.00;99.90
63313;DHT22;49442;45.640;13.812;2022-12-24T11:46:12;10.00;99.90
63313;DHT22;49442;45.640;13.812;2022-12-24T11:48:38;10.00;99.90
63313;DHT22;49442;45.640;13.812;2022-12-24T11:51:05;10.10;99.90
63313;DHT22;49442;45.640;13.812;2022-12-24T11:53:35;10.10;99.90
63313;DHT22;49442;45.640;13.812;2022-12-24T11:56:04;10.10;99.90
63313;DHT22;49442;45.640;13.812;2022-12-24T12:01:01;10.20;99.90
63313;DHT22;49442;45.640;13.812;2022-12-24T12:03:41;10.20;99.90
63313;DHT22;49442;45.640;13.812;2022-12-24T12:06:26;10.20;99.90
63313;DHT22;49442;45.640;13.812;2022-12-24T12:09:13;10.30;99.90
63313;DHT22;49442;45.640;13.812;2022-12-24T12:11:41;10.30;99.90
63313;DHT22;49442;45.640;13.812;2022-12-24T12:14:08;10.30;99.90
63313;DHT22;49442;45.640;13.812;2022-12-24T12:16:42;10.30;99.90
63313;DHT22;49442;45.640;13.812;2022-12-24T12:19:27;10.30;99.90
63313;DHT22;49442;45.640;13.812;2022-12-24T12:21:54;10.30;99.90
63313;DHT22;49442;45.640;13.812;2022-12-24T12:24:21;10.30;99.90
63313;DHT22;49442;45.640;13.812;2022-12-24T12:26:53;10.30;99.90
63313;DHT22;49442;45.640;13.812;2022-12-24T12:29:29;10.30;99.90
63313;DHT22;49442;45.640;13.812;2022-12-24T12:31:56;10.30;99.90
63313;DHT22;49442;45.640;13.812;2022-12-24T12:34:28;10.30;99.90
63313;DHT22;49442;45.640;13.812;2022-12-24T12:36:57;10.30;99.90
63313;DHT22;49442;45.640;13.812;2022-12-24T12:39:24;10.30;99.90
63313;DHT22;49442;45.640;13.812;2022-12-24T12:50:24;10.40;99.90
63313;DHT22;49442;45.640;13.812;2022-12-24T12:55:36;10.40;99.90
63313;DHT22;49442;45.640;13.812;2022-12-24T12:58:08;10.30;99.90
63313;DHT22;49442;45.640;13.812;2022-12-24T13:00:36;10.30;99.90
63313;DHT22;49442;45.640;13.812;2022-12-24T13:05:52;10.40;99.90
63313;DHT22;49442;45.640;13.812;2022-12-24T13:13:33;10.20;99.90
63313;DHT22;49442;45.640;13.812;2022-12-24T13:21:29;10.10;99.90
63313;DHT22;49442;45.640;13.812;2022-12-24T13:24:03;10.10;99.90
63313;DHT22;49442;45.640;13.812;2022-12-24T13:26:29;10.10;99.90
63313;DHT22;49442;45.640;13.812;2022-12-24T13:28:54;10.10;99.90
63313;DHT22;49442;45.640;13.812;2022-12-24T13:31:40;10.00;99.90
63313;DHT22;49442;45.640;13.812;2022-12-24T13:34:05;10.00;99.90
63313;DHT22;49442;45.640;13.812;2022-12-24T13:37:01;10.00;99.90
63313;DHT22;49442;45.640;13.812;2022-12-24T13:39:28;10.00;99.90
63313;DHT22;49442;45.640;13.812;2022-12-24T13:41:53;10.10;99.90
63313;DHT22;49442;45.640;13.812;2022-12-24T13:44:20;10.10;99.90
63313;DHT22;49442;45.640;13.812;2022-12-24T13:54:37;10.00;99.90
63313;DHT22;49442;45.640;13.812;2022-12-24T13:57:14;10.00;99.90
63313;DHT22;49442;45.640;13.812;2022-12-24T13:59:47;10.00;99.90
63313;DHT22;49442;45.640;13.812;2022-12-24T14:02:19;10.00;99.90
63313;DHT22;49442;45.640;13.812;2022-12-24T14:04:46;10.00;99.90
63313;DHT22;49442;45.640;13.812;2022-12-24T14:07:14;10.00;99.90
63313;DHT22;49442;45.640;13.812;2022-12-24T14:09:46;10.00;99.90
63313;DHT22;49442;45.640;13.812;2022-12-24T14:12:13;10.00;99.90
63313;DHT22;49442;45.640;13.812;2022-12-24T14:14:40;10.00;99.90
63313;DHT22;49442;45.640;13.812;2022-12-24T14:19:40;10.00;99.90
63313;DHT22;49442;45.640;13.812;2022-12-24T14:24:35;10.00;99.90
63313;DHT22;49442;45.640;13.812;2022-12-24T14:27:05;10.00;99.90
63313;DHT22;49442;45.640;13.812;2022-12-24T14:29:33;10.00;99.90
63313;DHT22;49442;45.640;13.812;2022-12-24T14:32:00;9.90;99.90
63313;DHT22;49442;45.640;13.812;2022-12-24T14:34:29;9.90;99.90
63313;DHT22;49442;45.640;13.812;2022-12-24T14:36:55;9.90;99.90
63313;DHT22;49442;45.640;13.812;2022-12-24T14:39:25;9.90;99.90
63313;DHT22;49442;45.640;13.812;2022-12-24T14:41:56;9.90;99.90
63313;DHT22;49442;45.640;13.812;2022-12-24T14:46:56;9.90;99.90
63313;DHT22;49442;45.640;13.812;2022-12-24T14:59:51;9.80;99.90
63313;DHT22;49442;45.640;13.812;2022-12-24T15:04:45;9.80;99.90
63313;DHT22;49442;45.640;13.812;2022-12-24T15:07:10;9.80;99.90
63313;DHT22;49442;45.640;13.812;2022-12-24T15:09:36;9.80;99.90
63313;DHT22;49442;45.640;13.812;2022-12-24T15:12:05;9.80;99.90
63313;DHT22;49442;45.640;13.812;2022-12-24T15:14:32;9.80;99.90
63313;DHT22;49442;45.640;13.812;2022-12-24T15:17:02;9.70;99.90
63313;DHT22;49442;45.640;13.812;2022-12-24T15:19:33;9.70;99.90
63313;DHT22;49442;45.640;13.812;2022-12-24T15:22:00;9.70;99.90
63313;DHT22;49442;45.640;13.812;2022-12-24T15:24:33;9.70;99.90
63313;DHT22;49442;45.640;13.812;2022-12-24T15:26:59;9.70;99.90
63313;DHT22;49442;45.640;13.812;2022-12-24T15:29:28;9.60;99.90
63313;DHT22;49442;45.640;13.812;2022-12-24T15:31:55;9.60;99.90
63313;DHT22;49442;45.640;13.812;2022-12-24T15:36:59;9.50;99.90
63313;DHT22;49442;45.640;13.812;2022-12-24T15:39:24;9.50;99.90
63313;DHT22;49442;45.640;13.812;2022-12-24T15:41:50;9.40;99.90
63313;DHT22;49442;45.640;13.812;2022-12-24T15:44:35;9.40;99.90
63313;DHT22;49442;45.640;13.812;2022-12-24T15:47:02;9.30;99.90
63313;DHT22;49442;45.640;13.812;2022-12-24T15:49:29;9.30;99.90
63313;DHT22;49442;45.640;13.812;2022-12-24T15:52:08;9.30;99.90
63313;DHT22;49442;45.640;13.812;2022-12-24T15:54:34;9.30;99.90
63313;DHT22;49442;45.640;13.812;2022-12-24T15:57:10;9.30;99.90
63313;DHT22;49442;45.640;13.812;2022-12-24T15:59:36;9.30;99.90
63313;DHT22;49442;45.640;13.812;2022-12-24T16:04:46;9.20;99.90
63313;DHT22;49442;45.640;13.812;2022-12-24T16:07:22;9.20;99.90
63313;DHT22;49442;45.640;13.812;2022-12-24T16:09:48;9.10;99.90
63313;DHT22;49442;45.640;13.812;2022-12-24T16:12:23;9.10;99.90
63313;DHT22;49442;45.640;13.812;2022-12-24T16:14:56;9.00;99.90
63313;DHT22;49442;45.640;13.812;2022-12-24T16:17:24;9.00;99.90
63313;DHT22;49442;45.640;13.812;2022-12-24T16:19:51;9.00;99.90
63313;DHT22;49442;45.640;13.812;2022-12-24T16:22:18;8.90;99.90
63313;DHT22;49442;45.640;13.812;2022-12-24T16:27:42;8.90;99.90
63313;DHT22;49442;45.640;13.812;2022-12-24T16:30:09;8.80;99.90
63313;DHT22;49442;45.640;13.812;2022-12-24T16:32:35;8.80;99.90
63313;DHT22;49442;45.640;13.812;2022-12-24T16:35:03;8.70;99.90
63313;DHT22;49442;45.640;13.812;2022-12-24T16:37:29;8.70;99.90
63313;DHT22;49442;45.640;13.812;2022-12-24T16:39:54;8.80;99.90
63313;DHT22;49442;45.640;13.812;2022-12-24T16:42:21;8.70;99.90
63313;DHT22;49442;45.640;13.812;2022-12-24T16:45:05;8.60;99.90
63313;DHT22;49442;45.640;13.812;2022-12-24T16:47:34;8.60;99.90
63313;DHT22;49442;45.640;13.812;2022-12-24T16:50:01;8.60;99.90
63313;DHT22;49442;45.640;13.812;2022-12-24T16:52:27;8.60;99.90
63313;DHT22;49442;45.640;13.812;2022-12-24T16:54:54;8.60;99.90
63313;DHT22;49442;45.640;13.812;2022-12-24T16:57:20;8.60;99.90
63313;DHT22;49442;45.640;13.812;2022-12-24T16:59:45;8.60;99.90
63313;DHT22;49442;45.640;13.812;2022-12-24T17:02:15;8.60;99.90
63313;DHT22;49442;45.640;13.812;2022-12-24T17:04:41;8.70;99.90
63313;DHT22;49442;45.640;13.812;2022-12-24T17:07:07;8.70;99.90
63313;DHT22;49442;45.640;13.812;2022-12-24T17:09:32;8.70;99.90
63313;DHT22;49442;45.640;13.812;2022-12-24T17:11:58;8.70;99.90
63313;DHT22;49442;45.640;13.812;2022-12-24T17:14:23;8.70;99.90
63313;DHT22;49442;45.640;13.812;2022-12-24T17:16:49;8.70;99.90
63313;DHT22;49442;45.640;13.812;2022-12-24T17:19:14;8.70;99.90
63313;DHT22;49442;45.640;13.812;2022-12-24T17:21:40;8.80;99.90
63313;DHT22;49442;45.640;13.812;2022-12-24T17:24:06;8.80;99.90